sensor_id;sensor_type;location;lat;lon;timestamp;pressure;altitude;pressure_sealevel;temperature;humidity
16580;BME280;8402;51.466;6.806;2023-06-22T00:00:49;101511.59;;;25.36;53.53
16580;BME280;8402;51.466;6.806;2023-06-22T00:03:21;101533.81;;;25.33;53.43
16580;BME280;8402;51.466;6.806;2023-06-22T00:05:52;101525.09;;;25.23;53.57
16580;BME280;8402;51.466;6.806;2023-06-22T00:08:23;101518.72;;;25.19;54.03
16580;BME280;8402;51.466;6.806;2023-06-22T00:10:53;101533.00;;;25.18;54.10
16580;BME280;8402;51.466;6.806;2023-06-22T00:13:25;101527.06;;;25.16;54.36
16580;BME280;8402;51.466;6.806;2023-06-22T00:15:55;101519.50;;;25.13;54.52
16580;BME280;8402;51.466;6.806;2023-06-22T00:18:25;101523.47;;;25.12;54.64
16580;BME280;8402;51.466;6.806;2023-06-22T00:20:59;101524.25;;;25.05;55.07
16580;BME280;8402;51.466;6.806;2023-06-22T00:23:29;101519.88;;;25.01;55.07
16580;BME280;8402;51.466;6.806;2023-06-22T00:26:03;101521.44;;;25.02;55.06
16580;BME280;8402;51.466;6.806;2023-06-22T00:28:36;101519.50;;;25.06;55.61
16580;BME280;8402;51.466;6.806;2023-06-22T00:31:06;101528.25;;;25.08;55.46
16580;BME280;8402;51.466;6.806;2023-06-22T00:33:36;101521.06;;;25.03;55.95
16580;BME280;8402;51.466;6.806;2023-06-22T00:36:06;101527.03;;;25.05;55.96
16580;BME280;8402;51.466;6.806;2023-06-22T00:38:40;101520.63;;;24.97;56.40
16580;BME280;8402;51.466;6.806;2023-06-22T00:41:09;101512.31;;;24.97;55.75
16580;BME280;8402;51.466;6.806;2023-06-22T00:43:42;101514.31;;;24.93;56.91
16580;BME280;8402;51.466;6.806;2023-06-22T00:46:12;101508.75;;;24.93;56.64
16580;BME280;8402;51.466;6.806;2023-06-22T00:48:42;101511.91;;;24.95;56.38
16580;BME280;8402;51.466;6.806;2023-06-22T00:51:12;101512.31;;;24.97;56.55
16580;BME280;8402;51.466;6.806;2023-06-22T00:53:42;101505.16;;;25.00;56.08
16580;BME280;8402;51.466;6.806;2023-06-22T00:56:13;101515.50;;;25.03;56.87
16580;BME280;8402;51.466;6.806;2023-06-22T00:58:49;101502.03;;;25.02;56.83
16580;BME280;8402;51.466;6.806;2023-06-22T01:01:20;101500.03;;;25.02;56.74
16580;BME280;8402;51.466;6.806;2023-06-22T01:03:52;101498.44;;;25.01;56.61
16580;BME280;8402;51.466;6.806;2023-06-22T01:06:29;101492.47;;;24.99;56.55
16580;BME280;8402;51.466;6.806;2023-06-22T01:09:10;101495.66;;;24.97;56.61
16580;BME280;8402;51.466;6.806;2023-06-22T01:11:45;101493.25;;;24.92;57.23
16580;BME280;8402;51.466;6.806;2023-06-22T01:14:25;101503.56;;;24.88;57.12
16580;BME280;8402;51.466;6.806;2023-06-22T01:16:57;101492.47;;;24.81;56.81
16580;BME280;8402;51.466;6.806;2023-06-22T01:19:39;101495.59;;;24.65;58.24
16580;BME280;8402;51.466;6.806;2023-06-22T01:22:15;101485.28;;;24.59;57.61
16580;BME280;8402;51.466;6.806;2023-06-22T01:24:55;101488.41;;;24.57;57.54
16580;BME280;8402;51.466;6.806;2023-06-22T01:27:39;101490.00;;;24.55;58.31
16580;BME280;8402;51.466;6.806;2023-06-22T01:30:16;101494.75;;;24.54;58.03
16580;BME280;8402;51.466;6.806;2023-06-22T01:32:46;101494.75;;;24.51;58.05
16580;BME280;8402;51.466;6.806;2023-06-22T01:35:18;101491.56;;;24.49;57.89
16580;BME280;8402;51.466;6.806;2023-06-22T01:37:49;101486.00;;;24.45;58.16
16580;BME280;8402;51.466;6.806;2023-06-22T01:40:20;101480.88;;;24.43;58.22
16580;BME280;8402;51.466;6.806;2023-06-22T01:42:51;101478.09;;;24.43;58.87
16580;BME280;8402;51.466;6.806;2023-06-22T01:45:24;101481.22;;;24.42;58.31
16580;BME280;8402;51.466;6.806;2023-06-22T01:47:55;101475.69;;;24.42;58.81
16580;BME280;8402;51.466;6.806;2023-06-22T01:50:26;101478.09;;;24.43;58.83
16580;BME280;8402;51.466;6.806;2023-06-22T01:52:56;101484.44;;;24.44;58.78
16580;BME280;8402;51.466;6.806;2023-06-22T01:55:26;101479.69;;;24.45;58.98
16580;BME280;8402;51.466;6.806;2023-06-22T01:57:56;101479.69;;;24.45;59.15
16580;BME280;8402;51.466;6.806;2023-06-22T02:00:31;101483.25;;;24.45;59.62
16580;BME280;8402;51.466;6.806;2023-06-22T02:03:06;101479.69;;;24.45;59.75
16580;BME280;8402;51.466;6.806;2023-06-22T02:05:39;101479.69;;;24.45;59.22
16580;BME280;8402;51.466;6.806;2023-06-22T02:08:15;101476.47;;;24.42;59.50
16580;BME280;8402;51.466;6.806;2023-06-22T02:10:48;101475.28;;;24.40;59.88
16580;BME280;8402;51.466;6.806;2023-06-22T02:13:19;101474.47;;;24.36;59.81
16580;BME280;8402;51.466;6.806;2023-06-22T02:15:52;101476.41;;;24.32;60.39
16580;BME280;8402;51.466;6.806;2023-06-22T02:18:22;101471.66;;;24.32;60.01
16580;BME280;8402;51.466;6.806;2023-06-22T02:20:52;101470.13;;;24.35;60.40
16580;BME280;8402;51.466;6.806;2023-06-22T02:23:22;101478.84;;;24.33;60.27
16580;BME280;8402;51.466;6.806;2023-06-22T02:25:52;101481.16;;;24.28;60.11
16580;BME280;8402;51.466;6.806;2023-06-22T02:28:22;101469.66;;;24.22;60.89
16580;BME280;8402;51.466;6.806;2023-06-22T02:30:57;101468.41;;;24.09;61.36
16580;BME280;8402;51.466;6.806;2023-06-22T02:33:27;101463.22;;;24.04;61.43
16580;BME280;8402;51.466;6.806;2023-06-22T02:35:57;101467.19;;;24.03;61.14
16580;BME280;8402;51.466;6.806;2023-06-22T02:38:32;101466.78;;;24.01;61.14
16580;BME280;8402;51.466;6.806;2023-06-22T02:41:03;101468.34;;;23.98;61.53
16580;BME280;8402;51.466;6.806;2023-06-22T02:43:33;101464.38;;;23.96;61.32
16580;BME280;8402;51.466;6.806;2023-06-22T02:46:06;101461.22;;;23.94;61.37
16580;BME280;8402;51.466;6.806;2023-06-22T02:48:36;101466.75;;;23.94;62.05
16580;BME280;8402;51.466;6.806;2023-06-22T02:51:06;101461.97;;;23.91;61.61
16580;BME280;8402;51.466;6.806;2023-06-22T02:53:35;101457.59;;;23.89;61.91
16580;BME280;8402;51.466;6.806;2023-06-22T02:56:06;101456.41;;;23.91;62.10
16580;BME280;8402;51.466;6.806;2023-06-22T02:58:36;101456.03;;;23.88;62.09
16580;BME280;8402;51.466;6.806;2023-06-22T03:01:08;101451.25;;;23.85;62.43
16580;BME280;8402;51.466;6.806;2023-06-22T03:03:39;101450.84;;;23.83;62.28
16580;BME280;8402;51.466;6.806;2023-06-22T03:06:09;101446.88;;;23.84;62.31
16580;BME280;8402;51.466;6.806;2023-06-22T03:08:41;101452.84;;;23.86;62.65
16580;BME280;8402;51.466;6.806;2023-06-22T03:11:11;101442.16;;;23.88;62.25
16580;BME280;8402;51.466;6.806;2023-06-22T03:13:41;101437.81;;;23.87;62.84
16580;BME280;8402;51.466;6.806;2023-06-22T03:16:15;101433.84;;;23.88;62.72
16580;BME280;8402;51.466;6.806;2023-06-22T03:18:45;101436.63;;;23.88;62.93
16580;BME280;8402;51.466;6.806;2023-06-22T03:21:15;101441.38;;;23.92;62.50
16580;BME280;8402;51.466;6.806;2023-06-22T03:23:45;101436.25;;;23.94;62.32
16580;BME280;8402;51.466;6.806;2023-06-22T03:26:16;101440.19;;;23.93;62.53
16580;BME280;8402;51.466;6.806;2023-06-22T03:28:46;101435.84;;;23.92;62.19
16580;BME280;8402;51.466;6.806;2023-06-22T03:31:19;101439.78;;;23.91;62.61
16580;BME280;8402;51.466;6.806;2023-06-22T03:33:50;101427.09;;;23.86;63.11
16580;BME280;8402;51.466;6.806;2023-06-22T03:36:20;101426.28;;;23.82;63.09
16580;BME280;8402;51.466;6.806;2023-06-22T03:38:50;101420.72;;;23.78;62.94
16580;BME280;8402;51.466;6.806;2023-06-22T03:41:20;101414.78;;;23.76;63.27
16580;BME280;8402;51.466;6.806;2023-06-22T03:43:50;101415.94;;;23.72;63.82
16580;BME280;8402;51.466;6.806;2023-06-22T03:46:22;101413.50;;;23.63;63.40
16580;BME280;8402;51.466;6.806;2023-06-22T03:48:52;101400.00;;;23.58;63.89
16580;BME280;8402;51.466;6.806;2023-06-22T03:51:22;101399.97;;;23.54;63.98
16580;BME280;8402;51.466;6.806;2023-06-22T03:53:52;101410.28;;;23.54;64.32
16580;BME280;8402;51.466;6.806;2023-06-22T03:56:22;101406.66;;;23.50;64.13
16580;BME280;8402;51.466;6.806;2023-06-22T03:58:52;101403.88;;;23.46;64.68
16580;BME280;8402;51.466;6.806;2023-06-22T04:01:25;101401.09;;;23.43;64.82
16580;BME280;8402;51.466;6.806;2023-06-22T04:03:55;101408.59;;;23.42;64.48
16580;BME280;8402;51.466;6.806;2023-06-22T04:06:25;101406.22;;;23.41;65.06
16580;BME280;8402;51.466;6.806;2023-06-22T04:08:56;101399.09;;;23.40;64.99
16580;BME280;8402;51.466;6.806;2023-06-22T04:11:26;101403.44;;;23.41;65.18
16580;BME280;8402;51.466;6.806;2023-06-22T04:13:56;101403.44;;;23.41;65.27
16580;BME280;8402;51.466;6.806;2023-06-22T04:16:28;101401.88;;;23.40;65.38
16580;BME280;8402;51.466;6.806;2023-06-22T04:18:58;101410.19;;;23.40;65.35
16580;BME280;8402;51.466;6.806;2023-06-22T04:21:28;101413.72;;;23.37;65.65
16580;BME280;8402;51.466;6.806;2023-06-22T04:23:58;101406.63;;;23.43;65.56
16580;BME280;8402;51.466;6.806;2023-06-22T04:26:28;101400.72;;;23.48;65.81
16580;BME280;8402;51.466;6.806;2023-06-22T04:29:03;101404.72;;;23.54;66.09
16580;BME280;8402;51.466;6.806;2023-06-22T04:31:38;101406.38;;;23.62;66.28
16580;BME280;8402;51.466;6.806;2023-06-22T04:34:11;101414.28;;;23.60;65.99
16580;BME280;8402;51.466;6.806;2023-06-22T04:36:43;101413.13;;;23.61;65.85
16580;BME280;8402;51.466;6.806;2023-06-22T04:39:13;101411.09;;;23.58;65.88
16580;BME280;8402;51.466;6.806;2023-06-22T04:41:43;101415.03;;;23.57;66.26
16580;BME280;8402;51.466;6.806;2023-06-22T04:44:14;101404.00;;;23.60;66.14
16580;BME280;8402;51.466;6.806;2023-06-22T04:46:55;101403.63;;;23.62;66.23
16580;BME280;8402;51.466;6.806;2023-06-22T04:49:28;101399.19;;;23.54;67.11
16580;BME280;8402;51.466;6.806;2023-06-22T04:52:00;101400.00;;;23.58;66.48
16580;BME280;8402;51.466;6.806;2023-06-22T04:54:31;101406.78;;;23.64;66.48
16580;BME280;8402;51.466;6.806;2023-06-22T04:57:02;101414.34;;;23.67;66.33
16580;BME280;8402;51.466;6.806;2023-06-22T04:59:37;101412.00;;;23.73;66.21
16580;BME280;8402;51.466;6.806;2023-06-22T05:02:11;101404.88;;;23.75;66.15
16580;BME280;8402;51.466;6.806;2023-06-22T05:04:41;101411.22;;;23.72;66.62
16580;BME280;8402;51.466;6.806;2023-06-22T05:07:12;101413.53;;;23.67;66.35
16580;BME280;8402;51.466;6.806;2023-06-22T05:09:44;101401.69;;;23.66;66.42
16580;BME280;8402;51.466;6.806;2023-06-22T05:12:14;101402.84;;;23.65;66.09
16580;BME280;8402;51.466;6.806;2023-06-22T05:14:44;101396.13;;;23.66;66.21
16580;BME280;8402;51.466;6.806;2023-06-22T05:17:17;101398.47;;;23.64;66.30
16580;BME280;8402;51.466;6.806;2023-06-22T05:19:47;101400.09;;;23.65;65.94
16580;BME280;8402;51.466;6.806;2023-06-22T05:22:18;101396.13;;;23.66;65.99
16580;BME280;8402;51.466;6.806;2023-06-22T05:24:48;101407.22;;;23.66;65.99
16580;BME280;8402;51.466;6.806;2023-06-22T05:27:18;101404.81;;;23.61;66.10
16580;BME280;8402;51.466;6.806;2023-06-22T05:29:48;101407.50;;;23.57;66.34
16580;BME280;8402;51.466;6.806;2023-06-22T05:32:21;101406.31;;;23.55;66.54
16580;BME280;8402;51.466;6.806;2023-06-22T05:34:54;101404.72;;;23.54;66.45
16580;BME280;8402;51.466;6.806;2023-06-22T05:37:24;101411.06;;;23.51;66.65
16580;BME280;8402;51.466;6.806;2023-06-22T05:39:54;101412.63;;;23.52;66.91
16580;BME280;8402;51.466;6.806;2023-06-22T05:42:24;101410.28;;;23.54;66.84
16580;BME280;8402;51.466;6.806;2023-06-22T05:44:55;101415.03;;;23.57;66.98
16580;BME280;8402;51.466;6.806;2023-06-22T05:47:28;101415.44;;;23.59;67.52
16580;BME280;8402;51.466;6.806;2023-06-22T05:49:58;101428.53;;;23.62;66.58
16580;BME280;8402;51.466;6.806;2023-06-22T05:52:33;101442.03;;;23.67;67.22
16580;BME280;8402;51.466;6.806;2023-06-22T05:55:03;101431.72;;;23.64;67.29
16580;BME280;8402;51.466;6.806;2023-06-22T05:57:33;101442.78;;;23.60;68.01
16580;BME280;8402;51.466;6.806;2023-06-22T06:00:05;101445.16;;;23.62;68.16
16580;BME280;8402;51.466;6.806;2023-06-22T06:02:40;101440.84;;;23.68;68.16
16580;BME280;8402;51.466;6.806;2023-06-22T06:05:11;101447.63;;;23.74;68.69
16580;BME280;8402;51.466;6.806;2023-06-22T06:07:41;101445.66;;;23.78;68.81
16580;BME280;8402;51.466;6.806;2023-06-22T06:10:12;101438.97;;;23.79;69.21
16580;BME280;8402;51.466;6.806;2023-06-22T06:12:42;101449.25;;;23.82;69.27
16580;BME280;8402;51.466;6.806;2023-06-22T06:15:12;101449.97;;;23.69;70.15
16580;BME280;8402;51.466;6.806;2023-06-22T06:17:49;101444.41;;;23.65;70.53
16580;BME280;8402;51.466;6.806;2023-06-22T06:20:20;101446.41;;;23.68;70.83
16580;BME280;8402;51.466;6.806;2023-06-22T06:22:50;101444.41;;;23.69;70.83
16580;BME280;8402;51.466;6.806;2023-06-22T06:25:20;101442.03;;;23.67;71.30
16580;BME280;8402;51.466;6.806;2023-06-22T06:27:51;101441.25;;;23.67;71.54
16580;BME280;8402;51.466;6.806;2023-06-22T06:30:22;101437.63;;;23.59;71.68
16580;BME280;8402;51.466;6.806;2023-06-22T06:32:55;101433.97;;;23.48;72.42
16580;BME280;8402;51.466;6.806;2023-06-22T06:35:25;101430.75;;;23.42;73.11
16580;BME280;8402;51.466;6.806;2023-06-22T06:37:56;101430.75;;;23.39;73.26
16580;BME280;8402;51.466;6.806;2023-06-22T06:40:26;101428.31;;;23.33;74.17
16580;BME280;8402;51.466;6.806;2023-06-22T06:42:57;101429.91;;;23.34;74.27
16580;BME280;8402;51.466;6.806;2023-06-22T06:45:27;101425.16;;;23.35;74.18
16580;BME280;8402;51.466;6.806;2023-06-22T06:48:02;101417.25;;;23.33;74.66
16580;BME280;8402;51.466;6.806;2023-06-22T06:50:32;101414.06;;;23.31;74.49
16580;BME280;8402;51.466;6.806;2023-06-22T06:53:02;101408.53;;;23.31;74.69
16580;BME280;8402;51.466;6.806;2023-06-22T06:55:33;101406.16;;;23.33;74.69
16580;BME280;8402;51.466;6.806;2023-06-22T06:58:03;101406.56;;;23.32;74.87
16580;BME280;8402;51.466;6.806;2023-06-22T07:00:37;101402.22;;;23.31;75.09
16580;BME280;8402;51.466;6.806;2023-06-22T07:03:09;101399.78;;;23.22;76.12
16580;BME280;8402;51.466;6.806;2023-06-22T07:05:39;101398.53;;;23.16;76.39
16580;BME280;8402;51.466;6.806;2023-06-22T07:08:09;101403.69;;;23.21;76.98
16580;BME280;8402;51.466;6.806;2023-06-22T07:10:39;101397.41;;;23.24;77.60
16580;BME280;8402;51.466;6.806;2023-06-22T07:13:09;101395.03;;;23.26;77.44
16580;BME280;8402;51.466;6.806;2023-06-22T07:15:39;101385.22;;;23.32;77.63
16580;BME280;8402;51.466;6.806;2023-06-22T07:18:12;101380.50;;;23.37;78.03
16580;BME280;8402;51.466;6.806;2023-06-22T07:20:42;101377.72;;;23.40;77.99
16580;BME280;8402;51.466;6.806;2023-06-22T07:23:11;101377.00;;;23.47;77.32
16580;BME280;8402;51.466;6.806;2023-06-22T07:25:41;101373.06;;;23.55;76.87
16580;BME280;8402;51.466;6.806;2023-06-22T07:28:11;101374.31;;;23.61;76.93
16580;BME280;8402;51.466;6.806;2023-06-22T07:30:42;101366.03;;;23.61;76.59
16580;BME280;8402;51.466;6.806;2023-06-22T07:33:17;101372.38;;;23.65;76.89
16580;BME280;8402;51.466;6.806;2023-06-22T07:35:47;101381.88;;;23.71;76.95
16580;BME280;8402;51.466;6.806;2023-06-22T07:38:19;101372.44;;;23.79;77.15
16580;BME280;8402;51.466;6.806;2023-06-22T07:40:49;101386.75;;;23.88;76.53
16580;BME280;8402;51.466;6.806;2023-06-22T07:43:21;101391.50;;;23.88;76.59
16580;BME280;8402;51.466;6.806;2023-06-22T07:45:51;101397.81;;;23.88;76.06
16580;BME280;8402;51.466;6.806;2023-06-22T07:48:24;101396.56;;;23.79;77.86
16580;BME280;8402;51.466;6.806;2023-06-22T07:50:56;101383.47;;;23.65;77.54
16580;BME280;8402;51.466;6.806;2023-06-22T07:53:26;101376.31;;;23.60;78.12
16580;BME280;8402;51.466;6.806;2023-06-22T07:55:56;101370.78;;;23.64;78.63
16580;BME280;8402;51.466;6.806;2023-06-22T07:58:26;101367.63;;;23.69;78.05
16580;BME280;8402;51.466;6.806;2023-06-22T08:00:56;101367.28;;;23.74;77.82
16580;BME280;8402;51.466;6.806;2023-06-22T08:03:28;101364.50;;;23.74;77.51
16580;BME280;8402;51.466;6.806;2023-06-22T08:05:58;101365.69;;;23.73;77.41
16580;BME280;8402;51.466;6.806;2023-06-22T08:08:28;101360.50;;;23.72;77.81
16580;BME280;8402;51.466;6.806;2023-06-22T08:10:58;101350.25;;;23.72;78.12
16580;BME280;8402;51.466;6.806;2023-06-22T08:13:28;101333.22;;;23.77;77.47
16580;BME280;8402;51.466;6.806;2023-06-22T08:15:58;101322.97;;;23.81;78.17
16580;BME280;8402;51.466;6.806;2023-06-22T08:18:31;101308.31;;;23.84;77.90
16580;BME280;8402;51.466;6.806;2023-06-22T08:21:01;101301.59;;;23.85;78.00
16580;BME280;8402;51.466;6.806;2023-06-22T08:23:32;101305.56;;;23.92;78.33
16580;BME280;8402;51.466;6.806;2023-06-22T08:26:02;101295.69;;;23.98;78.18
16580;BME280;8402;51.466;6.806;2023-06-22T08:28:32;101287.78;;;23.96;77.84
16580;BME280;8402;51.466;6.806;2023-06-22T08:31:02;101275.50;;;23.97;77.98
16580;BME280;8402;51.466;6.806;2023-06-22T08:33:35;101269.16;;;23.97;77.56
16580;BME280;8402;51.466;6.806;2023-06-22T08:36:15;101264.03;;;23.95;77.04
16580;BME280;8402;51.466;6.806;2023-06-22T08:38:45;101264.81;;;23.99;77.58
16580;BME280;8402;51.466;6.806;2023-06-22T08:41:18;101264.03;;;24.06;77.81
16580;BME280;8402;51.466;6.806;2023-06-22T08:43:48;101270.38;;;24.10;77.24
16580;BME280;8402;51.466;6.806;2023-06-22T08:46:18;101279.91;;;24.16;76.73
16580;BME280;8402;51.466;6.806;2023-06-22T08:49:00;101288.59;;;24.18;77.08
16580;BME280;8402;51.466;6.806;2023-06-22T08:51:31;101291.78;;;24.20;77.69
16580;BME280;8402;51.466;6.806;2023-06-22T08:54:01;101289.41;;;24.26;77.63
16580;BME280;8402;51.466;6.806;2023-06-22T08:56:30;101285.47;;;24.34;77.44
16580;BME280;8402;51.466;6.806;2023-06-22T08:59:00;101274.78;;;24.39;77.19
16580;BME280;8402;51.466;6.806;2023-06-22T09:01:30;101266.09;;;24.45;76.36
16580;BME280;8402;51.466;6.806;2023-06-22T09:04:03;101270.44;;;24.53;76.44
16580;BME280;8402;51.466;6.806;2023-06-22T09:06:36;101264.50;;;24.58;76.13
16580;BME280;8402;51.466;6.806;2023-06-22T09:09:12;101261.72;;;24.58;75.85
16580;BME280;8402;51.466;6.806;2023-06-22T09:11:42;101264.88;;;24.63;76.31
16580;BME280;8402;51.466;6.806;2023-06-22T09:14:12;101261.72;;;24.68;76.10
16580;BME280;8402;51.466;6.806;2023-06-22T09:16:42;101259.34;;;24.74;75.74
16580;BME280;8402;51.466;6.806;2023-06-22T09:19:15;101267.25;;;24.79;75.91
16580;BME280;8402;51.466;6.806;2023-06-22T09:21:45;101268.06;;;24.80;75.38
16580;BME280;8402;51.466;6.806;2023-06-22T09:24:15;101266.84;;;24.84;75.49
16580;BME280;8402;51.466;6.806;2023-06-22T09:26:46;101270.41;;;24.88;75.29
16580;BME280;8402;51.466;6.806;2023-06-22T09:29:16;101277.16;;;24.84;75.28
16580;BME280;8402;51.466;6.806;2023-06-22T09:31:46;101272.00;;;24.82;74.89
16580;BME280;8402;51.466;6.806;2023-06-22T09:34:19;101270.41;;;24.85;75.63
16580;BME280;8402;51.466;6.806;2023-06-22T09:36:49;101265.25;;;24.90;75.73
16580;BME280;8402;51.466;6.806;2023-06-22T09:39:19;101262.47;;;25.05;75.54
16580;BME280;8402;51.466;6.806;2023-06-22T09:41:49;101256.13;;;25.15;75.25
16580;BME280;8402;51.466;6.806;2023-06-22T09:44:18;101254.47;;;25.21;74.14
16580;BME280;8402;51.466;6.806;2023-06-22T09:46:48;101256.84;;;25.26;74.94
16580;BME280;8402;51.466;6.806;2023-06-22T09:49:21;101256.06;;;25.29;75.18
16580;BME280;8402;51.466;6.806;2023-06-22T09:52:11;101253.63;;;25.35;74.60
16580;BME280;8402;51.466;6.806;2023-06-22T09:54:41;101245.28;;;25.45;74.89
16580;BME280;8402;51.466;6.806;2023-06-22T09:57:11;101248.78;;;25.60;74.58
16580;BME280;8402;51.466;6.806;2023-06-22T09:59:41;101246.38;;;25.73;73.73
16580;BME280;8402;51.466;6.806;2023-06-22T10:02:11;101250.97;;;25.97;73.08
16580;BME280;8402;51.466;6.806;2023-06-22T10:04:43;101238.84;;;26.25;72.39
16580;BME280;8402;51.466;6.806;2023-06-22T10:07:14;101233.09;;;26.50;71.90
16580;BME280;8402;51.466;6.806;2023-06-22T10:09:44;101231.22;;;26.81;71.29
16580;BME280;8402;51.466;6.806;2023-06-22T10:12:13;101227.44;;;26.99;69.27
16580;BME280;8402;51.466;6.806;2023-06-22T10:14:43;101225.31;;;27.13;69.66
16580;BME280;8402;51.466;6.806;2023-06-22T10:17:13;101228.00;;;27.21;69.48
16580;BME280;8402;51.466;6.806;2023-06-22T10:19:46;101228.50;;;27.46;68.17
16580;BME280;8402;51.466;6.806;2023-06-22T10:22:16;101218.47;;;27.52;68.25
16580;BME280;8402;51.466;6.806;2023-06-22T10:24:46;101205.53;;;27.65;67.78
16580;BME280;8402;51.466;6.806;2023-06-22T10:27:16;101208.66;;;27.98;67.47
16580;BME280;8402;51.466;6.806;2023-06-22T10:29:46;101204.47;;;28.37;66.48
16580;BME280;8402;51.466;6.806;2023-06-22T10:32:15;101201.47;;;28.47;64.91
16580;BME280;8402;51.466;6.806;2023-06-22T10:34:48;101201.56;;;28.44;64.53
16580;BME280;8402;51.466;6.806;2023-06-22T10:37:18;101193.78;;;28.32;63.84
16580;BME280;8402;51.466;6.806;2023-06-22T10:39:48;101197.78;;;28.31;65.32
16580;BME280;8402;51.466;6.806;2023-06-22T10:42:18;101195.72;;;28.35;64.73
16580;BME280;8402;51.466;6.806;2023-06-22T10:44:48;101205.19;;;28.41;64.44
16580;BME280;8402;51.466;6.806;2023-06-22T10:47:18;101216.22;;;28.48;64.63
16580;BME280;8402;51.466;6.806;2023-06-22T10:49:50;101215.38;;;28.51;63.79
16580;BME280;8402;51.466;6.806;2023-06-22T10:52:20;101221.44;;;28.46;63.72
16580;BME280;8402;51.466;6.806;2023-06-22T10:54:50;101225.19;;;28.36;63.51
16580;BME280;8402;51.466;6.806;2023-06-22T10:57:22;101233.66;;;28.32;63.21
16580;BME280;8402;51.466;6.806;2023-06-22T10:59:52;101236.88;;;28.31;63.50
16580;BME280;8402;51.466;6.806;2023-06-22T11:02:21;101241.22;;;28.32;64.20
16580;BME280;8402;51.466;6.806;2023-06-22T11:04:54;101243.16;;;28.35;64.08
16580;BME280;8402;51.466;6.806;2023-06-22T11:07:27;101239.66;;;28.31;64.00
16580;BME280;8402;51.466;6.806;2023-06-22T11:09:58;101238.88;;;28.30;64.34
16580;BME280;8402;51.466;6.806;2023-06-22T11:12:28;101231.69;;;28.29;65.05
16580;BME280;8402;51.466;6.806;2023-06-22T11:14:58;101235.75;;;28.24;65.29
16580;BME280;8402;51.466;6.806;2023-06-22T11:17:28;101229.41;;;28.20;64.60
16580;BME280;8402;51.466;6.806;2023-06-22T11:20:01;101232.31;;;28.13;64.56
16580;BME280;8402;51.466;6.806;2023-06-22T11:22:31;101235.53;;;28.12;65.58
16580;BME280;8402;51.466;6.806;2023-06-22T11:25:02;101241.53;;;28.10;65.93
16580;BME280;8402;51.466;6.806;2023-06-22T11:27:32;101234.38;;;28.09;66.19
16580;BME280;8402;51.466;6.806;2023-06-22T11:30:03;101242.38;;;28.07;66.34
16580;BME280;8402;51.466;6.806;2023-06-22T11:32:33;101236.06;;;28.03;66.02
16580;BME280;8402;51.466;6.806;2023-06-22T11:35:07;101235.41;;;27.95;66.09
16580;BME280;8402;51.466;6.806;2023-06-22T11:37:38;101235.44;;;27.92;66.91
16580;BME280;8402;51.466;6.806;2023-06-22T11:40:12;101238.72;;;27.87;67.23
16580;BME280;8402;51.466;6.806;2023-06-22T11:42:44;101239.19;;;27.82;67.84
16580;BME280;8402;51.466;6.806;2023-06-22T11:45:14;101243.19;;;27.81;68.32
16580;BME280;8402;51.466;6.806;2023-06-22T11:47:45;101248.81;;;27.77;68.24
16580;BME280;8402;51.466;6.806;2023-06-22T11:50:17;101250.91;;;27.69;68.79
16580;BME280;8402;51.466;6.806;2023-06-22T11:52:47;101227.06;;;27.65;69.80
16580;BME280;8402;51.466;6.806;2023-06-22T11:55:17;101209.25;;;27.55;70.14
16580;BME280;8402;51.466;6.806;2023-06-22T11:57:55;101186.03;;;27.35;70.78
16580;BME280;8402;51.466;6.806;2023-06-22T12:00:29;101163.56;;;27.19;72.16
16580;BME280;8402;51.466;6.806;2023-06-22T12:03:16;101154.47;;;27.14;72.54
16580;BME280;8402;51.466;6.806;2023-06-22T12:05:49;101125.53;;;27.08;72.86
16580;BME280;8402;51.466;6.806;2023-06-22T12:08:20;101115.22;;;27.02;73.03
16580;BME280;8402;51.466;6.806;2023-06-22T12:10:50;101117.72;;;26.93;73.18
16580;BME280;8402;51.466;6.806;2023-06-22T12:13:21;101125.38;;;26.85;73.65
16580;BME280;8402;51.466;6.806;2023-06-22T12:15:51;101131.78;;;26.82;73.90
16580;BME280;8402;51.466;6.806;2023-06-22T12:18:21;101122.31;;;26.76;74.26
16580;BME280;8402;51.466;6.806;2023-06-22T12:20:54;101106.84;;;26.71;75.30
16580;BME280;8402;51.466;6.806;2023-06-22T12:23:24;101111.69;;;26.64;75.27
16580;BME280;8402;51.466;6.806;2023-06-22T12:25:54;101111.06;;;26.52;76.29
16580;BME280;8402;51.466;6.806;2023-06-22T12:28:24;101123.75;;;26.53;76.23
16580;BME280;8402;51.466;6.806;2023-06-22T12:30:54;101125.75;;;26.53;76.78
16580;BME280;8402;51.466;6.806;2023-06-22T12:33:24;101117.75;;;26.58;77.13
16580;BME280;8402;51.466;6.806;2023-06-22T12:35:57;101100.97;;;26.66;78.41
16580;BME280;8402;51.466;6.806;2023-06-22T12:38:27;101084.91;;;26.77;78.16
16580;BME280;8402;51.466;6.806;2023-06-22T12:40:57;101085.66;;;26.81;78.13
16580;BME280;8402;51.466;6.806;2023-06-22T12:43:27;101065.84;;;26.75;78.50
16580;BME280;8402;51.466;6.806;2023-06-22T12:45:57;101060.63;;;26.77;78.55
16580;BME280;8402;51.466;6.806;2023-06-22T12:48:27;101071.34;;;26.79;79.11
16580;BME280;8402;51.466;6.806;2023-06-22T12:51:00;101060.59;;;26.81;78.79
16580;BME280;8402;51.466;6.806;2023-06-22T12:53:30;101048.34;;;26.75;78.14
16580;BME280;8402;51.466;6.806;2023-06-22T12:56:00;101053.16;;;26.71;78.59
16580;BME280;8402;51.466;6.806;2023-06-22T12:58:30;101052.38;;;26.70;79.05
16580;BME280;8402;51.466;6.806;2023-06-22T13:01:00;101062.81;;;26.63;78.71
16580;BME280;8402;51.466;6.806;2023-06-22T13:03:30;101060.41;;;26.65;79.21
16580;BME280;8402;51.466;6.806;2023-06-22T13:06:03;101051.69;;;26.63;79.51
16580;BME280;8402;51.466;6.806;2023-06-22T13:08:33;101045.28;;;26.66;79.09
16580;BME280;8402;51.466;6.806;2023-06-22T13:11:23;101046.44;;;26.68;78.72
16580;BME280;8402;51.466;6.806;2023-06-22T13:13:53;101038.13;;;26.65;79.58
16580;BME280;8402;51.466;6.806;2023-06-22T13:16:22;101031.88;;;26.57;79.36
16580;BME280;8402;51.466;6.806;2023-06-22T13:18:52;101031.50;;;26.55;79.26
16580;BME280;8402;51.466;6.806;2023-06-22T13:21:25;101038.22;;;26.57;79.74